Crestview, FL

11:14 PM CDT on August 31, 2015 (GMT -0500)
Steeplechase | | Change Station
CLOSE
Current Station
Personal Weather Station
Location: Crestview, FL
Elevation: 250 ft
Nearby Weather Stations

Elev 250 ft 30.73 °N, 86.56 °W | Updated 3 seconds ago

Partly Cloudy
Partly Cloudy
79.0 °F
Feels Like 82 °F
N
0.0
Wind Variable Wind from NNE
Gusts 0.0 mph

Today
High -- | Low -- °F
--% Chance of Precip.
Yesterday
High -- | Low -- °F
Precip. -- in
6:21 AM 7:10 PM
Waning Gibbous, 91% visible
Pressure 30.06 in
Visibility 10.0 miles
Clouds Few 6000 ft
Heat Index 82 °F
Dew Point 72 °F
Humidity 79%
Rainfall in
Snow Depth Not available.
UV 0 out of 12
Pollen 7.90 out of 12
Air Quality Not available.
Flu Activity Not available.
METAR KCEW 010353Z AUTO 00000KT 10SM FEW060 24/22 A3007 RMK AO2 SLP179 T02390222 $
Pressure 30.06 in
Visibility 10.0 miles
Clouds Few 6000 ft
Heat Index 82 °F
Dew Point 72 °F
Humidity 79%
Rainfall in
Snow Depth Not available.
UV 0 out of 12
Pollen 7.90 out of 12
Air Quality Not available.
Flu Activity Not available.
METAR KCEW 010353Z AUTO 00000KT 10SM FEW060 24/22 A3007 RMK AO2 SLP179 T02390222 $

10-Day Weather Forecast

×

Almanac

Astronomy

Aug. 31, 2015 Rise Set
Actual Time
Civil Twilight
Nautical Twilight
Astronomical Twilight
Moon
Length of Visible Light
Length of Day
Tomorrow will be .
, % of the Moon is Illuminated

Today's Extremes

State Highs State Lows

Community

WunderPhotos

Upload Photos

1,851,477 photos uploaded!

WunderBlogs® & News

Nearby

Air Quality

  Air Quality AQ Index Pollutant
Not available.

Snow Depth

Station Depth Elevation

Earthquake Activity

City Distance Mag. Time & Date
Minimum magnitude displayed is 2.5.

Coastal Water Temperatures

Place Temperature

Stations

Nearby Weather Stations

Station Location Temp. Windchill Dew Point Humidity Wind Precip. Elev Updated Type